sensor_id;sensor_type;location;lat;lon;timestamp;P1;durP1;ratioP1;P2;durP2;ratioP2
33579;SDS011;19909;43.644;-79.438;2024-03-02T00:00:22;1.40;;;0.50;;
33579;SDS011;19909;43.644;-79.438;2024-03-02T00:02:50;1.40;;;0.75;;
33579;SDS011;19909;43.644;-79.438;2024-03-02T00:05:18;0.60;;;0.50;;
33579;SDS011;19909;43.644;-79.438;2024-03-02T00:07:46;0.65;;;0.30;;
33579;SDS011;19909;43.644;-79.438;2024-03-02T00:10:22;2.47;;;0.80;;
33579;SDS011;19909;43.644;-79.438;2024-03-02T00:12:56;0.50;;;0.30;;
33579;SDS011;19909;43.644;-79.438;2024-03-02T00:15:37;0.82;;;0.50;;
33579;SDS011;19909;43.644;-79.438;2024-03-02T00:18:07;1.13;;;0.50;;
33579;SDS011;19909;43.644;-79.438;2024-03-02T00:20:38;1.23;;;0.75;;
33579;SDS011;19909;43.644;-79.438;2024-03-02T00:23:09;2.20;;;0.77;;
33579;SDS011;19909;43.644;-79.438;2024-03-02T00:25:40;2.30;;;0.70;;
33579;SDS011;19909;43.644;-79.438;2024-03-02T00:28:16;2.85;;;1.20;;
33579;SDS011;19909;43.644;-79.438;2024-03-02T00:33:19;2.03;;;1.08;;
33579;SDS011;19909;43.644;-79.438;2024-03-02T00:35:46;1.98;;;0.90;;
33579;SDS011;19909;43.644;-79.438;2024-03-02T00:38:13;1.50;;;0.98;;
33579;SDS011;19909;43.644;-79.438;2024-03-02T00:40:43;1.42;;;0.80;;
33579;SDS011;19909;43.644;-79.438;2024-03-02T00:43:28;1.75;;;1.00;;
33579;SDS011;19909;43.644;-79.438;2024-03-02T00:46:01;2.28;;;1.40;;
33579;SDS011;19909;43.644;-79.438;2024-03-02T00:48:28;2.70;;;0.80;;
33579;SDS011;19909;43.644;-79.438;2024-03-02T00:50:56;1.98;;;0.80;;
33579;SDS011;19909;43.644;-79.438;2024-03-02T00:53:23;2.38;;;0.88;;
33579;SDS011;19909;43.644;-79.438;2024-03-02T00:55:52;1.60;;;0.90;;
33579;SDS011;19909;43.644;-79.438;2024-03-02T00:58:18;0.93;;;0.60;;
33579;SDS011;19909;43.644;-79.438;2024-03-02T01:00:44;1.30;;;0.73;;
33579;SDS011;19909;43.644;-79.438;2024-03-02T01:03:12;1.00;;;0.90;;
33579;SDS011;19909;43.644;-79.438;2024-03-02T01:05:41;1.15;;;0.77;;
33579;SDS011;19909;43.644;-79.438;2024-03-02T01:08:11;1.17;;;0.98;;
33579;SDS011;19909;43.644;-79.438;2024-03-02T01:10:37;0.88;;;0.73;;
33579;SDS011;19909;43.644;-79.438;2024-03-02T01:13:03;1.20;;;0.70;;
33579;SDS011;19909;43.644;-79.438;2024-03-02T01:15:30;3.15;;;0.90;;
33579;SDS011;19909;43.644;-79.438;2024-03-02T01:17:56;1.60;;;0.80;;
33579;SDS011;19909;43.644;-79.438;2024-03-02T01:20:22;2.25;;;1.25;;
33579;SDS011;19909;43.644;-79.438;2024-03-02T01:22:50;1.75;;;1.00;;
33579;SDS011;19909;43.644;-79.438;2024-03-02T01:25:17;2.55;;;1.00;;
33579;SDS011;19909;43.644;-79.438;2024-03-02T01:27:43;1.38;;;0.98;;
33579;SDS011;19909;43.644;-79.438;2024-03-02T01:30:12;2.90;;;1.23;;
33579;SDS011;19909;43.644;-79.438;2024-03-02T01:32:38;2.15;;;1.13;;
33579;SDS011;19909;43.644;-79.438;2024-03-02T01:35:05;1.30;;;0.88;;
33579;SDS011;19909;43.644;-79.438;2024-03-02T01:37:32;2.45;;;0.93;;
33579;SDS011;19909;43.644;-79.438;2024-03-02T01:39:58;2.30;;;0.95;;
33579;SDS011;19909;43.644;-79.438;2024-03-02T01:42:24;1.20;;;0.85;;
33579;SDS011;19909;43.644;-79.438;2024-03-02T01:44:51;1.98;;;1.17;;
33579;SDS011;19909;43.644;-79.438;2024-03-02T01:47:17;1.55;;;1.08;;
33579;SDS011;19909;43.644;-79.438;2024-03-02T01:49:44;1.67;;;1.20;;
33579;SDS011;19909;43.644;-79.438;2024-03-02T01:52:10;1.17;;;0.95;;
33579;SDS011;19909;43.644;-79.438;2024-03-02T01:54:36;1.90;;;1.05;;
33579;SDS011;19909;43.644;-79.438;2024-03-02T01:57:03;1.45;;;1.13;;
33579;SDS011;19909;43.644;-79.438;2024-03-02T01:59:30;1.00;;;0.90;;
33579;SDS011;19909;43.644;-79.438;2024-03-02T02:01:56;1.90;;;1.25;;
33579;SDS011;19909;43.644;-79.438;2024-03-02T02:04:22;3.28;;;1.55;;
33579;SDS011;19909;43.644;-79.438;2024-03-02T02:06:53;1.95;;;1.45;;
33579;SDS011;19909;43.644;-79.438;2024-03-02T02:09:19;2.58;;;1.42;;
33579;SDS011;19909;43.644;-79.438;2024-03-02T02:11:46;3.28;;;1.30;;
33579;SDS011;19909;43.644;-79.438;2024-03-02T02:14:12;1.50;;;1.17;;
33579;SDS011;19909;43.644;-79.438;2024-03-02T02:16:39;2.05;;;1.33;;
33579;SDS011;19909;43.644;-79.438;2024-03-02T02:19:05;2.72;;;1.40;;
33579;SDS011;19909;43.644;-79.438;2024-03-02T02:21:31;4.20;;;1.30;;
33579;SDS011;19909;43.644;-79.438;2024-03-02T02:23:57;2.75;;;1.33;;
33579;SDS011;19909;43.644;-79.438;2024-03-02T02:26:24;2.63;;;1.42;;
33579;SDS011;19909;43.644;-79.438;2024-03-02T02:28:50;1.35;;;1.00;;
33579;SDS011;19909;43.644;-79.438;2024-03-02T02:31:16;1.60;;;1.00;;
33579;SDS011;19909;43.644;-79.438;2024-03-02T02:33:43;2.22;;;1.00;;
33579;SDS011;19909;43.644;-79.438;2024-03-02T02:36:09;1.92;;;1.10;;
33579;SDS011;19909;43.644;-79.438;2024-03-02T02:38:39;1.77;;;0.73;;
33579;SDS011;19909;43.644;-79.438;2024-03-02T02:41:08;2.45;;;1.33;;
33579;SDS011;19909;43.644;-79.438;2024-03-02T02:43:34;2.25;;;1.05;;
33579;SDS011;19909;43.644;-79.438;2024-03-02T02:46:00;1.15;;;0.75;;
33579;SDS011;19909;43.644;-79.438;2024-03-02T02:48:27;1.58;;;0.88;;
33579;SDS011;19909;43.644;-79.438;2024-03-02T02:50:53;1.05;;;0.68;;
33579;SDS011;19909;43.644;-79.438;2024-03-02T02:53:19;1.23;;;0.70;;
33579;SDS011;19909;43.644;-79.438;2024-03-02T02:55:45;1.70;;;0.60;;
33579;SDS011;19909;43.644;-79.438;2024-03-02T02:58:11;1.00;;;0.70;;
33579;SDS011;19909;43.644;-79.438;2024-03-02T03:00:38;1.10;;;0.80;;
33579;SDS011;19909;43.644;-79.438;2024-03-02T03:03:05;1.40;;;0.85;;
33579;SDS011;19909;43.644;-79.438;2024-03-02T03:05:31;1.27;;;1.00;;
33579;SDS011;19909;43.644;-79.438;2024-03-02T03:08:00;2.03;;;0.80;;
33579;SDS011;19909;43.644;-79.438;2024-03-02T03:10:26;1.40;;;0.70;;
33579;SDS011;19909;43.644;-79.438;2024-03-02T03:12:53;1.15;;;0.85;;
33579;SDS011;19909;43.644;-79.438;2024-03-02T03:15:21;2.35;;;1.10;;
33579;SDS011;19909;43.644;-79.438;2024-03-02T03:17:48;2.70;;;0.90;;
33579;SDS011;19909;43.644;-79.438;2024-03-02T03:20:16;1.67;;;1.00;;
33579;SDS011;19909;43.644;-79.438;2024-03-02T03:22:42;1.20;;;0.90;;
33579;SDS011;19909;43.644;-79.438;2024-03-02T03:25:08;3.28;;;1.10;;
33579;SDS011;19909;43.644;-79.438;2024-03-02T03:27:35;1.20;;;1.05;;
33579;SDS011;19909;43.644;-79.438;2024-03-02T03:30:01;1.77;;;1.10;;
33579;SDS011;19909;43.644;-79.438;2024-03-02T03:32:28;2.05;;;1.20;;
33579;SDS011;19909;43.644;-79.438;2024-03-02T03:34:54;2.80;;;0.85;;
33579;SDS011;19909;43.644;-79.438;2024-03-02T03:37:20;2.58;;;1.08;;
33579;SDS011;19909;43.644;-79.438;2024-03-02T03:39:46;1.20;;;0.93;;
33579;SDS011;19909;43.644;-79.438;2024-03-02T03:42:12;2.20;;;0.95;;
33579;SDS011;19909;43.644;-79.438;2024-03-02T03:44:38;0.82;;;0.60;;
33579;SDS011;19909;43.644;-79.438;2024-03-02T03:47:06;0.63;;;0.63;;
33579;SDS011;19909;43.644;-79.438;2024-03-02T03:49:33;1.48;;;0.88;;
33579;SDS011;19909;43.644;-79.438;2024-03-02T03:52:00;0.68;;;0.50;;
33579;SDS011;19909;43.644;-79.438;2024-03-02T03:54:27;1.60;;;0.73;;
33579;SDS011;19909;43.644;-79.438;2024-03-02T03:56:54;2.30;;;0.90;;
33579;SDS011;19909;43.644;-79.438;2024-03-02T03:59:21;1.60;;;0.93;;
33579;SDS011;19909;43.644;-79.438;2024-03-02T04:01:47;1.77;;;0.70;;
33579;SDS011;19909;43.644;-79.438;2024-03-02T04:04:13;2.22;;;1.25;;
33579;SDS011;19909;43.644;-79.438;2024-03-02T04:06:44;1.10;;;0.88;;
33579;SDS011;19909;43.644;-79.438;2024-03-02T04:09:10;2.75;;;1.48;;
33579;SDS011;19909;43.644;-79.438;2024-03-02T04:11:36;3.42;;;1.45;;
33579;SDS011;19909;43.644;-79.438;2024-03-02T04:14:03;2.10;;;1.50;;
33579;SDS011;19909;43.644;-79.438;2024-03-02T04:16:31;3.15;;;1.48;;
33579;SDS011;19909;43.644;-79.438;2024-03-02T04:18:58;3.40;;;1.40;;
33579;SDS011;19909;43.644;-79.438;2024-03-02T04:21:24;2.35;;;1.70;;
33579;SDS011;19909;43.644;-79.438;2024-03-02T04:23:51;3.75;;;1.30;;
33579;SDS011;19909;43.644;-79.438;2024-03-02T04:26:18;2.50;;;1.20;;
33579;SDS011;19909;43.644;-79.438;2024-03-02T04:28:47;2.38;;;1.17;;
33579;SDS011;19909;43.644;-79.438;2024-03-02T04:31:15;2.75;;;1.20;;
33579;SDS011;19909;43.644;-79.438;2024-03-02T04:33:42;1.95;;;1.00;;
33579;SDS011;19909;43.644;-79.438;2024-03-02T04:36:08;1.77;;;1.10;;
33579;SDS011;19909;43.644;-79.438;2024-03-02T04:38:35;1.55;;;1.00;;
33579;SDS011;19909;43.644;-79.438;2024-03-02T04:41:03;1.30;;;0.77;;
33579;SDS011;19909;43.644;-79.438;2024-03-02T04:43:31;2.03;;;0.90;;
33579;SDS011;19909;43.644;-79.438;2024-03-02T04:45:58;2.17;;;0.80;;
33579;SDS011;19909;43.644;-79.438;2024-03-02T04:48:24;3.03;;;0.95;;
33579;SDS011;19909;43.644;-79.438;2024-03-02T04:50:51;1.85;;;0.90;;
33579;SDS011;19909;43.644;-79.438;2024-03-02T04:53:17;1.48;;;0.90;;
33579;SDS011;19909;43.644;-79.438;2024-03-02T04:55:43;1.83;;;1.05;;
33579;SDS011;19909;43.644;-79.438;2024-03-02T04:58:11;1.88;;;1.10;;
33579;SDS011;19909;43.644;-79.438;2024-03-02T05:00:37;1.33;;;1.05;;
33579;SDS011;19909;43.644;-79.438;2024-03-02T05:03:04;2.88;;;1.40;;
33579;SDS011;19909;43.644;-79.438;2024-03-02T05:05:31;1.88;;;1.25;;
33579;SDS011;19909;43.644;-79.438;2024-03-02T05:08:00;1.38;;;1.10;;
33579;SDS011;19909;43.644;-79.438;2024-03-02T05:10:27;2.15;;;1.40;;
33579;SDS011;19909;43.644;-79.438;2024-03-02T05:12:53;2.95;;;1.20;;
33579;SDS011;19909;43.644;-79.438;2024-03-02T05:15:24;1.67;;;1.30;;
33579;SDS011;19909;43.644;-79.438;2024-03-02T05:17:51;1.42;;;0.90;;
33579;SDS011;19909;43.644;-79.438;2024-03-02T05:20:22;2.08;;;0.93;;
33579;SDS011;19909;43.644;-79.438;2024-03-02T05:22:48;2.17;;;1.00;;
33579;SDS011;19909;43.644;-79.438;2024-03-02T05:25:15;1.30;;;0.90;;
33579;SDS011;19909;43.644;-79.438;2024-03-02T05:27:45;2.03;;;0.85;;
33579;SDS011;19909;43.644;-79.438;2024-03-02T05:30:11;1.80;;;1.20;;
33579;SDS011;19909;43.644;-79.438;2024-03-02T05:32:38;1.48;;;1.08;;
33579;SDS011;19909;43.644;-79.438;2024-03-02T05:35:05;2.72;;;0.90;;
33579;SDS011;19909;43.644;-79.438;2024-03-02T05:37:31;2.63;;;1.75;;
33579;SDS011;19909;43.644;-79.438;2024-03-02T05:39:58;4.32;;;2.50;;
33579;SDS011;19909;43.644;-79.438;2024-03-02T05:42:25;3.45;;;2.08;;
33579;SDS011;19909;43.644;-79.438;2024-03-02T05:44:53;3.28;;;2.28;;
33579;SDS011;19909;43.644;-79.438;2024-03-02T05:47:22;3.42;;;2.25;;
33579;SDS011;19909;43.644;-79.438;2024-03-02T05:49:48;3.47;;;2.33;;
33579;SDS011;19909;43.644;-79.438;2024-03-02T05:52:14;3.60;;;2.00;;
33579;SDS011;19909;43.644;-79.438;2024-03-02T05:54:40;3.58;;;1.92;;
33579;SDS011;19909;43.644;-79.438;2024-03-02T05:57:07;4.85;;;2.70;;
33579;SDS011;19909;43.644;-79.438;2024-03-02T05:59:48;3.50;;;2.03;;
33579;SDS011;19909;43.644;-79.438;2024-03-02T06:02:14;2.75;;;2.00;;
33579;SDS011;19909;43.644;-79.438;2024-03-02T06:04:41;2.80;;;1.85;;
33579;SDS011;19909;43.644;-79.438;2024-03-02T06:07:07;2.90;;;1.63;;
33579;SDS011;19909;43.644;-79.438;2024-03-02T06:09:33;2.70;;;1.90;;
33579;SDS011;19909;43.644;-79.438;2024-03-02T06:11:59;2.72;;;1.65;;
33579;SDS011;19909;43.644;-79.438;2024-03-02T06:14:25;2.55;;;1.58;;
33579;SDS011;19909;43.644;-79.438;2024-03-02T06:16:52;3.03;;;1.30;;
33579;SDS011;19909;43.644;-79.438;2024-03-02T06:19:18;2.13;;;1.33;;
33579;SDS011;19909;43.644;-79.438;2024-03-02T06:21:44;1.90;;;1.27;;
33579;SDS011;19909;43.644;-79.438;2024-03-02T06:24:11;2.00;;;0.90;;
33579;SDS011;19909;43.644;-79.438;2024-03-02T06:26:37;1.25;;;0.77;;
33579;SDS011;19909;43.644;-79.438;2024-03-02T06:29:04;1.00;;;0.73;;
33579;SDS011;19909;43.644;-79.438;2024-03-02T06:31:30;2.45;;;1.20;;
33579;SDS011;19909;43.644;-79.438;2024-03-02T06:33:56;1.55;;;0.95;;
33579;SDS011;19909;43.644;-79.438;2024-03-02T06:36:23;2.10;;;0.80;;
33579;SDS011;19909;43.644;-79.438;2024-03-02T06:38:49;1.58;;;0.95;;
33579;SDS011;19909;43.644;-79.438;2024-03-02T06:41:16;1.23;;;1.00;;
33579;SDS011;19909;43.644;-79.438;2024-03-02T06:43:43;1.60;;;0.80;;
33579;SDS011;19909;43.644;-79.438;2024-03-02T06:46:10;2.13;;;0.90;;
33579;SDS011;19909;43.644;-79.438;2024-03-02T06:48:39;1.40;;;0.85;;
33579;SDS011;19909;43.644;-79.438;2024-03-02T06:51:06;1.25;;;1.00;;
33579;SDS011;19909;43.644;-79.438;2024-03-02T06:53:32;1.45;;;0.98;;
33579;SDS011;19909;43.644;-79.438;2024-03-02T06:55:59;1.23;;;0.90;;
33579;SDS011;19909;43.644;-79.438;2024-03-02T06:58:25;1.33;;;0.90;;
33579;SDS011;19909;43.644;-79.438;2024-03-02T07:00:52;1.67;;;1.17;;
33579;SDS011;19909;43.644;-79.438;2024-03-02T07:03:19;1.52;;;0.90;;
33579;SDS011;19909;43.644;-79.438;2024-03-02T07:05:45;2.13;;;1.00;;
33579;SDS011;19909;43.644;-79.438;2024-03-02T07:08:13;1.45;;;0.80;;
33579;SDS011;19909;43.644;-79.438;2024-03-02T07:10:40;2.00;;;1.10;;
33579;SDS011;19909;43.644;-79.438;2024-03-02T07:13:06;1.27;;;0.95;;
33579;SDS011;19909;43.644;-79.438;2024-03-02T07:15:32;1.20;;;0.88;;
33579;SDS011;19909;43.644;-79.438;2024-03-02T07:18:09;1.40;;;0.70;;
33579;SDS011;19909;43.644;-79.438;2024-03-02T07:20:36;1.58;;;0.73;;
33579;SDS011;19909;43.644;-79.438;2024-03-02T07:23:04;1.73;;;1.05;;
33579;SDS011;19909;43.644;-79.438;2024-03-02T07:25:31;1.15;;;0.60;;
33579;SDS011;19909;43.644;-79.438;2024-03-02T07:27:57;1.35;;;0.70;;
33579;SDS011;19909;43.644;-79.438;2024-03-02T07:30:23;1.10;;;0.65;;
33579;SDS011;19909;43.644;-79.438;2024-03-02T07:32:50;2.55;;;1.40;;
33579;SDS011;19909;43.644;-79.438;2024-03-02T07:35:16;2.58;;;1.13;;
33579;SDS011;19909;43.644;-79.438;2024-03-02T07:37:43;1.30;;;0.82;;
33579;SDS011;19909;43.644;-79.438;2024-03-02T07:40:09;1.92;;;1.00;;
33579;SDS011;19909;43.644;-79.438;2024-03-02T07:42:37;1.40;;;0.93;;
33579;SDS011;19909;43.644;-79.438;2024-03-02T07:45:05;2.75;;;1.23;;
33579;SDS011;19909;43.644;-79.438;2024-03-02T07:47:32;1.83;;;1.05;;
33579;SDS011;19909;43.644;-79.438;2024-03-02T07:50:00;3.33;;;1.30;;
33579;SDS011;19909;43.644;-79.438;2024-03-02T07:52:26;2.92;;;1.65;;
33579;SDS011;19909;43.644;-79.438;2024-03-02T07:54:52;1.55;;;1.15;;
33579;SDS011;19909;43.644;-79.438;2024-03-02T07:57:19;1.40;;;1.05;;
33579;SDS011;19909;43.644;-79.438;2024-03-02T07:59:45;1.63;;;0.77;;
33579;SDS011;19909;43.644;-79.438;2024-03-02T08:02:12;1.58;;;1.02;;
33579;SDS011;19909;43.644;-79.438;2024-03-02T08:04:39;2.78;;;1.25;;
33579;SDS011;19909;43.644;-79.438;2024-03-02T08:07:05;1.00;;;0.70;;
33579;SDS011;19909;43.644;-79.438;2024-03-02T08:09:32;1.35;;;0.80;;
33579;SDS011;19909;43.644;-79.438;2024-03-02T08:11:58;1.83;;;0.80;;
33579;SDS011;19909;43.644;-79.438;2024-03-02T08:14:24;1.13;;;0.80;;
33579;SDS011;19909;43.644;-79.438;2024-03-02T08:16:50;1.30;;;0.80;;
33579;SDS011;19909;43.644;-79.438;2024-03-02T08:19:17;1.25;;;0.70;;
33579;SDS011;19909;43.644;-79.438;2024-03-02T08:21:43;0.90;;;0.60;;
33579;SDS011;19909;43.644;-79.438;2024-03-02T08:24:09;1.90;;;0.60;;
33579;SDS011;19909;43.644;-79.438;2024-03-02T08:26:36;0.77;;;0.60;;
33579;SDS011;19909;43.644;-79.438;2024-03-02T08:29:02;1.73;;;0.68;;
33579;SDS011;19909;43.644;-79.438;2024-03-02T08:31:29;1.98;;;0.80;;
33579;SDS011;19909;43.644;-79.438;2024-03-02T08:33:56;1.42;;;0.60;;
33579;SDS011;19909;43.644;-79.438;2024-03-02T08:36:22;1.75;;;0.60;;
33579;SDS011;19909;43.644;-79.438;2024-03-02T08:38:49;2.30;;;0.85;;
33579;SDS011;19909;43.644;-79.438;2024-03-02T08:41:16;1.40;;;0.90;;
33579;SDS011;19909;43.644;-79.438;2024-03-02T08:43:43;0.70;;;0.68;;
33579;SDS011;19909;43.644;-79.438;2024-03-02T08:46:09;1.90;;;0.98;;
33579;SDS011;19909;43.644;-79.438;2024-03-02T08:48:36;1.75;;;0.90;;
33579;SDS011;19909;43.644;-79.438;2024-03-02T08:51:02;1.42;;;0.75;;
33579;SDS011;19909;43.644;-79.438;2024-03-02T08:53:31;0.85;;;0.50;;
33579;SDS011;19909;43.644;-79.438;2024-03-02T08:55:57;3.92;;;0.85;;
33579;SDS011;19909;43.644;-79.438;2024-03-02T08:58:24;1.45;;;0.85;;
33579;SDS011;19909;43.644;-79.438;2024-03-02T09:00:50;0.68;;;0.47;;
33579;SDS011;19909;43.644;-79.438;2024-03-02T09:03:16;1.42;;;0.90;;
33579;SDS011;19909;43.644;-79.438;2024-03-02T09:05:42;1.27;;;1.00;;
33579;SDS011;19909;43.644;-79.438;2024-03-02T09:08:10;1.05;;;0.50;;
33579;SDS011;19909;43.644;-79.438;2024-03-02T09:10:36;0.70;;;0.40;;
33579;SDS011;19909;43.644;-79.438;2024-03-02T09:13:04;0.50;;;0.30;;
33579;SDS011;19909;43.644;-79.438;2024-03-02T09:15:31;0.40;;;0.40;;
33579;SDS011;19909;43.644;-79.438;2024-03-02T09:17:57;0.60;;;0.50;;
33579;SDS011;19909;43.644;-79.438;2024-03-02T09:20:23;0.60;;;0.50;;
33579;SDS011;19909;43.644;-79.438;2024-03-02T09:22:50;0.90;;;0.55;;
33579;SDS011;19909;43.644;-79.438;2024-03-02T09:25:16;1.83;;;0.80;;
33579;SDS011;19909;43.644;-79.438;2024-03-02T09:27:44;0.95;;;0.50;;
33579;SDS011;19909;43.644;-79.438;2024-03-02T09:30:10;0.85;;;0.60;;
33579;SDS011;19909;43.644;-79.438;2024-03-02T09:32:37;1.40;;;0.68;;
33579;SDS011;19909;43.644;-79.438;2024-03-02T09:35:03;1.13;;;0.60;;
33579;SDS011;19909;43.644;-79.438;2024-03-02T09:37:30;1.42;;;0.70;;
33579;SDS011;19909;43.644;-79.438;2024-03-02T09:39:56;0.65;;;0.40;;
33579;SDS011;19909;43.644;-79.438;2024-03-02T09:42:22;0.82;;;0.50;;
33579;SDS011;19909;43.644;-79.438;2024-03-02T09:44:49;2.00;;;0.82;;
33579;SDS011;19909;43.644;-79.438;2024-03-02T09:47:16;0.98;;;0.60;;
33579;SDS011;19909;43.644;-79.438;2024-03-02T09:49:43;1.75;;;0.50;;
33579;SDS011;19909;43.644;-79.438;2024-03-02T09:52:10;1.17;;;0.70;;
33579;SDS011;19909;43.644;-79.438;2024-03-02T09:54:37;0.82;;;0.60;;
33579;SDS011;19909;43.644;-79.438;2024-03-02T09:57:05;1.98;;;0.40;;
33579;SDS011;19909;43.644;-79.438;2024-03-02T09:59:32;2.08;;;0.50;;
33579;SDS011;19909;43.644;-79.438;2024-03-02T10:02:00;0.65;;;0.50;;
33579;SDS011;19909;43.644;-79.438;2024-03-02T10:04:29;0.70;;;0.32;;
33579;SDS011;19909;43.644;-79.438;2024-03-02T10:07:18;0.55;;;0.50;;
33579;SDS011;19909;43.644;-79.438;2024-03-02T10:09:45;0.90;;;0.40;;
33579;SDS011;19909;43.644;-79.438;2024-03-02T10:12:14;0.57;;;0.40;;
33579;SDS011;19909;43.644;-79.438;2024-03-02T10:14:41;0.30;;;0.30;;
33579;SDS011;19909;43.644;-79.438;2024-03-02T10:17:09;0.90;;;0.63;;
33579;SDS011;19909;43.644;-79.438;2024-03-02T10:19:37;0.68;;;0.40;;
33579;SDS011;19909;43.644;-79.438;2024-03-02T10:22:04;0.60;;;0.30;;
33579;SDS011;19909;43.644;-79.438;2024-03-02T10:24:39;0.40;;;0.40;;
33579;SDS011;19909;43.644;-79.438;2024-03-02T10:27:08;1.40;;;0.30;;
33579;SDS011;19909;43.644;-79.438;2024-03-02T10:29:39;1.13;;;0.50;;
33579;SDS011;19909;43.644;-79.438;2024-03-02T10:32:08;1.10;;;0.50;;
33579;SDS011;19909;43.644;-79.438;2024-03-02T10:34:37;1.25;;;0.40;;
33579;SDS011;19909;43.644;-79.438;2024-03-02T10:37:05;0.70;;;0.47;;
33579;SDS011;19909;43.644;-79.438;2024-03-02T10:39:35;0.60;;;0.38;;
33579;SDS011;19909;43.644;-79.438;2024-03-02T10:42:02;0.65;;;0.38;;
33579;SDS011;19909;43.644;-79.438;2024-03-02T10:44:29;0.90;;;0.50;;
33579;SDS011;19909;43.644;-79.438;2024-03-02T10:46:57;0.70;;;0.35;;
33579;SDS011;19909;43.644;-79.438;2024-03-02T10:49:29;0.88;;;0.68;;
33579;SDS011;19909;43.644;-79.438;2024-03-02T10:52:00;1.08;;;0.50;;
33579;SDS011;19909;43.644;-79.438;2024-03-02T10:54:27;0.68;;;0.45;;
33579;SDS011;19909;43.644;-79.438;2024-03-02T10:57:01;1.42;;;0.52;;
33579;SDS011;19909;43.644;-79.438;2024-03-02T10:59:32;0.40;;;0.30;;
33579;SDS011;19909;43.644;-79.438;2024-03-02T11:02:01;0.63;;;0.40;;
33579;SDS011;19909;43.644;-79.438;2024-03-02T11:04:33;0.50;;;0.30;;
33579;SDS011;19909;43.644;-79.438;2024-03-02T11:07:08;1.67;;;0.60;;
33579;SDS011;19909;43.644;-79.438;2024-03-02T11:09:37;1.85;;;0.50;;
33579;SDS011;19909;43.644;-79.438;2024-03-02T11:14:50;0.95;;;0.50;;
33579;SDS011;19909;43.644;-79.438;2024-03-02T11:17:20;1.38;;;0.55;;
33579;SDS011;19909;43.644;-79.438;2024-03-02T11:19:46;1.48;;;0.43;;
33579;SDS011;19909;43.644;-79.438;2024-03-02T11:22:13;0.85;;;0.40;;
33579;SDS011;19909;43.644;-79.438;2024-03-02T11:24:50;1.65;;;0.70;;
33579;SDS011;19909;43.644;-79.438;2024-03-02T11:32:57;1.02;;;0.50;;
33579;SDS011;19909;43.644;-79.438;2024-03-02T11:35:37;1.33;;;0.50;;
33579;SDS011;19909;43.644;-79.438;2024-03-02T11:38:14;0.80;;;0.47;;
33579;SDS011;19909;43.644;-79.438;2024-03-02T11:40:40;0.60;;;0.40;;
33579;SDS011;19909;43.644;-79.438;2024-03-02T11:43:07;0.95;;;0.43;;
33579;SDS011;19909;43.644;-79.438;2024-03-02T11:45:35;1.05;;;0.70;;
33579;SDS011;19909;43.644;-79.438;2024-03-02T11:48:05;1.38;;;0.40;;
33579;SDS011;19909;43.644;-79.438;2024-03-02T11:50:48;0.95;;;0.50;;
33579;SDS011;19909;43.644;-79.438;2024-03-02T11:53:15;1.10;;;0.40;;
33579;SDS011;19909;43.644;-79.438;2024-03-02T11:55:43;0.47;;;0.40;;
33579;SDS011;19909;43.644;-79.438;2024-03-02T11:58:14;0.65;;;0.40;;
33579;SDS011;19909;43.644;-79.438;2024-03-02T12:00:46;0.37;;;0.27;;
33579;SDS011;19909;43.644;-79.438;2024-03-02T12:03:13;0.60;;;0.40;;
33579;SDS011;19909;43.644;-79.438;2024-03-02T12:05:40;0.40;;;0.30;;
33579;SDS011;19909;43.644;-79.438;2024-03-02T12:08:08;0.95;;;0.35;;
33579;SDS011;19909;43.644;-79.438;2024-03-02T12:10:35;0.52;;;0.32;;
33579;SDS011;19909;43.644;-79.438;2024-03-02T12:13:05;0.60;;;0.40;;
33579;SDS011;19909;43.644;-79.438;2024-03-02T12:15:34;2.28;;;0.70;;
33579;SDS011;19909;43.644;-79.438;2024-03-02T12:18:05;1.02;;;0.70;;
33579;SDS011;19909;43.644;-79.438;2024-03-02T12:20:32;2.50;;;0.50;;
33579;SDS011;19909;43.644;-79.438;2024-03-02T12:23:00;0.80;;;0.60;;
33579;SDS011;19909;43.644;-79.438;2024-03-02T12:25:27;0.85;;;0.60;;
33579;SDS011;19909;43.644;-79.438;2024-03-02T12:27:54;2.05;;;0.63;;
33579;SDS011;19909;43.644;-79.438;2024-03-02T12:30:21;0.63;;;0.50;;
33579;SDS011;19909;43.644;-79.438;2024-03-02T12:32:48;0.80;;;0.50;;
33579;SDS011;19909;43.644;-79.438;2024-03-02T12:35:15;0.82;;;0.50;;
33579;SDS011;19909;43.644;-79.438;2024-03-02T12:37:48;1.95;;;0.70;;
33579;SDS011;19909;43.644;-79.438;2024-03-02T12:40:17;0.77;;;0.40;;
33579;SDS011;19909;43.644;-79.438;2024-03-02T12:42:45;0.95;;;0.50;;
33579;SDS011;19909;43.644;-79.438;2024-03-02T12:45:15;1.45;;;0.68;;
33579;SDS011;19909;43.644;-79.438;2024-03-02T12:47:48;1.25;;;0.40;;
33579;SDS011;19909;43.644;-79.438;2024-03-02T12:50:19;0.60;;;0.35;;
33579;SDS011;19909;43.644;-79.438;2024-03-02T12:52:55;0.93;;;0.40;;
33579;SDS011;19909;43.644;-79.438;2024-03-02T12:55:21;0.50;;;0.38;;
33579;SDS011;19909;43.644;-79.438;2024-03-02T12:57:51;0.43;;;0.30;;
33579;SDS011;19909;43.644;-79.438;2024-03-02T13:00:18;0.47;;;0.47;;
33579;SDS011;19909;43.644;-79.438;2024-03-02T13:02:47;0.52;;;0.40;;
33579;SDS011;19909;43.644;-79.438;2024-03-02T13:05:16;1.48;;;0.60;;
33579;SDS011;19909;43.644;-79.438;2024-03-02T13:07:42;1.40;;;0.32;;
33579;SDS011;19909;43.644;-79.438;2024-03-02T13:10:10;0.98;;;0.57;;
33579;SDS011;19909;43.644;-79.438;2024-03-02T13:12:38;0.52;;;0.38;;
33579;SDS011;19909;43.644;-79.438;2024-03-02T13:15:04;1.33;;;0.50;;
33579;SDS011;19909;43.644;-79.438;2024-03-02T13:17:31;0.82;;;0.63;;
33579;SDS011;19909;43.644;-79.438;2024-03-02T13:19:59;1.70;;;0.60;;
33579;SDS011;19909;43.644;-79.438;2024-03-02T13:22:26;1.17;;;0.50;;
33579;SDS011;19909;43.644;-79.438;2024-03-02T13:24:52;0.55;;;0.40;;
33579;SDS011;19909;43.644;-79.438;2024-03-02T13:27:22;1.23;;;0.73;;
33579;SDS011;19909;43.644;-79.438;2024-03-02T13:29:49;1.00;;;0.60;;
33579;SDS011;19909;43.644;-79.438;2024-03-02T13:32:15;1.30;;;0.60;;
33579;SDS011;19909;43.644;-79.438;2024-03-02T13:34:42;1.27;;;0.73;;
33579;SDS011;19909;43.644;-79.438;2024-03-02T13:37:09;1.10;;;0.60;;
33579;SDS011;19909;43.644;-79.438;2024-03-02T13:39:35;0.98;;;0.63;;
33579;SDS011;19909;43.644;-79.438;2024-03-02T13:42:09;0.98;;;0.43;;
33579;SDS011;19909;43.644;-79.438;2024-03-02T13:44:37;1.10;;;0.55;;
33579;SDS011;19909;43.644;-79.438;2024-03-02T13:47:04;0.60;;;0.40;;
33579;SDS011;19909;43.644;-79.438;2024-03-02T13:49:32;0.60;;;0.38;;
33579;SDS011;19909;43.644;-79.438;2024-03-02T13:52:00;0.52;;;0.40;;
33579;SDS011;19909;43.644;-79.438;2024-03-02T13:54:28;0.70;;;0.40;;
33579;SDS011;19909;43.644;-79.438;2024-03-02T13:56:55;0.70;;;0.50;;
33579;SDS011;19909;43.644;-79.438;2024-03-02T13:59:25;0.95;;;0.40;;
33579;SDS011;19909;43.644;-79.438;2024-03-02T14:01:52;1.38;;;0.50;;
33579;SDS011;19909;43.644;-79.438;2024-03-02T14:04:19;1.45;;;0.70;;
33579;SDS011;19909;43.644;-79.438;2024-03-02T14:06:45;0.95;;;0.65;;
33579;SDS011;19909;43.644;-79.438;2024-03-02T14:09:11;0.93;;;0.70;;
33579;SDS011;19909;43.644;-79.438;2024-03-02T14:11:38;1.20;;;0.70;;
33579;SDS011;19909;43.644;-79.438;2024-03-02T14:14:05;1.20;;;0.60;;
33579;SDS011;19909;43.644;-79.438;2024-03-02T14:16:31;2.42;;;0.90;;
33579;SDS011;19909;43.644;-79.438;2024-03-02T14:18:59;1.13;;;0.70;;
33579;SDS011;19909;43.644;-79.438;2024-03-02T14:21:25;2.10;;;1.15;;
33579;SDS011;19909;43.644;-79.438;2024-03-02T14:23:51;1.13;;;0.70;;
33579;SDS011;19909;43.644;-79.438;2024-03-02T14:26:17;1.00;;;0.70;;
33579;SDS011;19909;43.644;-79.438;2024-03-02T14:28:44;2.33;;;0.80;;
33579;SDS011;19909;43.644;-79.438;2024-03-02T14:31:11;1.52;;;0.73;;
33579;SDS011;19909;43.644;-79.438;2024-03-02T14:33:37;1.75;;;1.10;;